This demonstration page uses our WeatherBlox Daily Observations layout. Learn more.

Left ArrowRight Arrow

Hourly Observations for March 23, 2017

Temp ( °F °C ) Dew Point ( °F °C ) Humidity (%) Winds ( mph kmh ) Pressure ( in mb ) Visibility ( mi km ) Precip ( " mm )
12:53 am 00:53 Clear 30 -1.1 21 -6.1 69 69 ENE 6 9 30.52 1034 10 16.0934 N/A
1:53 am 01:53 Clear 28 -2.2 20 -6.7 72 72 ENE 3 6 30.51 1033 10 16.0934 N/A
2:53 am 02:53 Clear 27 -2.8 20 -6.7 75 75 ENE 5 7 30.5 1033 10 16.0934 N/A
3:53 am 03:53 Clear 27 -2.8 20 -6.7 75 75 ENE 5 7 30.5 1033 10 16.0934 N/A
4:53 am 04:53 Clear 26 -3.3 19 -7.2 75 75 ENE 5 7 30.5 1033 10 16.0934 N/A
5:53 am 05:53 Clear 26 -3.3 18 -7.8 71 71 ENE 5 7 30.49 1032 10 16.0934 N/A
6:53 am 06:53 Clear 25 -3.9 18 -7.8 75 75 ENE 3 6 30.5 1033 10 16.0934 N/A
7:53 am 07:53 Sunny 25 -3.9 19 -7.2 78 78 N N/A 30.5 1033 10 16.0934 N/A
8:53 am 08:53 Sunny 30 -1.1 19 -7.2 64 64 E 10 17 30.5 1033 10 16.0934 N/A
9:53 am 09:53 Sunny 35 1.7 18 -7.8 50 50 E 10 17 30.5 1033 10 16.0934 N/A
10:53 am 10:53 Sunny 38 3.3 17 -8.3 43 43 E 8 13 30.5 1033 10 16.0934 N/A
11:53 am 11:53 Sunny 43 6.1 20 -6.7 40 40 ESE 9 15 30.49 1033 10 16.0934 N/A
12:53 pm 12:53 Mostly Sunny 46 7.8 20 -6.7 35 35 E 13 20 30.45 1031 10 16.0934 N/A
1:53 pm 13:53 Mostly Sunny 50 10 21 -6.1 32 32 VRB 7 11 30.42 1030 10 16.0934 N/A
2:53 pm 14:53 Sunny 53 11.7 23 -5 31 31 VRB 5 7 30.38 1029 10 16.0934 N/A
3:53 pm 15:53 Sunny 56 13.3 21 -6.1 26 26 VRB 3 6 30.34 1027 10 16.0934 N/A
4:53 pm 16:53 Sunny 58 14.4 23 -5 26 26 VRB 7 11 30.3 1026 10 16.0934 N/A
5:53 pm 17:53 Sunny 59 15 24 -4.4 26 26 VRB 6 9 30.28 1026 10 16.0934 N/A
6:53 pm 18:53 Partly Cloudy 59 15 24 -4.4 26 26 SSE 6 9 30.28 1025 10 16.0934 N/A
7:53 pm 19:53 Sunny 58 14.4 26 -3.3 29 29 S 3 6 30.27 1025 10 16.0934 N/A
8:53 pm 20:53 Mostly Cloudy 57 13.9 29 -1.7 34 34 SSE 5 7 30.26 1025 10 16.0934 N/A
9:53 pm 21:53 Mostly Cloudy 56 13.3 31 -0.6 39 39 SSE 3 6 30.24 1024 10 16.0934 N/A
10:53 pm 22:53 Mostly Clear 52 11.1 33 0.6 49 49 N N/A 30.23 1024 10 16.0934 N/A
11:53 pm 23:53 Mostly Cloudy 53 11.7 33 0.6 47 47 N N/A 30.21 1023 10 16.0934 N/A

Powered by AerisWeather